Time;durP1;ratioP1;P1;durP2;ratioP2;P2;SDS_P1;SDS_P2;PMS_P1;PMS_P2;Temp;Humidity;BMP_temperature;BMP_pressure;BME280_temperature;BME280_humidity;BME280_pressure;Samples;Min_cycle;Max_cycle;Signal;HPM_P1;HPM_P2
2022/01/22 00:01:56;;;;;;;13.70;4.30;;;;;;;;;;5012525;28;20560;-81
2022/01/22 00:04:23;;;;;;;14.27;5.63;;;;;;;;;;5013855;28;20524;-81
2022/01/22 00:06:51;;;;;;;8.87;3.60;;;;;;;;;;5013254;28;20482;-81
2022/01/22 00:09:17;;;;;;;7.93;3.10;;;;;;;;;;5013614;28;20489;-82
2022/01/22 00:11:51;;;;;;;7.80;3.33;;;;;;;;;;5011708;28;21072;-81
2022/01/22 00:14:27;;;;;;;12.20;3.63;;;;;;;;;;5011358;28;21133;-82
2022/01/22 00:16:54;;;;;;;18.67;4.50;;;;;;;;;;5014147;28;20469;-82
2022/01/22 00:19:22;;;;;;;10.70;3.10;;;;;;;;;;5014921;28;20466;-82
2022/01/22 00:21:48;;;;;;;9.07;3.30;;;;;;;;;;5013331;28;20862;-81
2022/01/22 00:24:14;;;;;;;13.03;3.70;;;;;;;;;;5015174;28;20832;-82
2022/01/22 00:26:41;;;;;;;8.33;3.50;;;;;;;;;;5014454;28;20470;-82
2022/01/22 00:29:08;;;;;;;14.80;2.83;;;;;;;;;;5013224;28;20465;-82
2022/01/22 00:31:34;;;;;;;10.93;3.37;;;;;;;;;;5012475;28;20532;-81
2022/01/22 00:34:00;;;;;;;10.30;3.27;;;;;;;;;;5012833;28;20476;-81
2022/01/22 00:36:28;;;;;;;13.73;3.50;;;;;;;;;;5014477;28;20484;-82
2022/01/22 00:38:54;;;;;;;23.80;5.07;;;;;;;;;;5013313;28;20907;-81
2022/01/22 00:41:21;;;;;;;9.23;3.00;;;;;;;;;;5014207;28;21006;-81
2022/01/22 00:43:48;;;;;;;10.63;3.80;;;;;;;;;;5014119;28;20477;-82
2022/01/22 00:46:14;;;;;;;7.73;2.90;;;;;;;;;;5015342;28;20449;-82
2022/01/22 00:48:40;;;;;;;8.03;3.20;;;;;;;;;;5013815;28;20485;-82
2022/01/22 00:51:06;;;;;;;11.10;2.53;;;;;;;;;;5012759;28;20482;-82
2022/01/22 00:53:34;;;;;;;8.47;3.70;;;;;;;;;;5014383;28;20516;-82
2022/01/22 00:56:00;;;;;;;10.13;3.03;;;;;;;;;;5016156;28;20457;-82
2022/01/22 00:58:27;;;;;;;7.80;2.90;;;;;;;;;;5016780;28;20482;-82
2022/01/22 01:00:53;;;;;;;14.00;3.63;;;;;;;;;;5018470;28;20520;-82
2022/01/22 01:03:19;;;;;;;11.67;3.20;;;;;;;;;;5016517;28;20529;-82
2022/01/22 01:05:45;;;;;;;11.70;3.33;;;;;;;;;;5019114;28;20446;-81
2022/01/22 01:08:12;;;;;;;20.63;5.30;;;;;;;;;;5015284;28;20512;-82
2022/01/22 01:10:39;;;;;;;17.93;3.67;;;;;;;;;;5016350;28;20482;-82
2022/01/22 01:13:06;;;;;;;9.77;3.73;;;;;;;;;;5017702;28;20488;-82
2022/01/22 01:15:40;;;;;;;9.90;3.53;;;;;;;;;;5019382;28;21037;-81
2022/01/22 01:34:28;;;;;;;19.93;5.00;;;;;;;;;;5021514;28;20582;-90
2022/01/22 01:36:55;;;;;;;15.63;4.40;;;;;;;;;;5019993;28;20473;-90
2022/01/22 01:39:26;;;;;;;15.13;4.20;;;;;;;;;;5018282;28;20457;-89
2022/01/22 01:41:57;;;;;;;15.70;4.37;;;;;;;;;;5016719;28;20580;-89
2022/01/22 01:44:24;;;;;;;20.40;4.97;;;;;;;;;;5021182;28;20532;-89
2022/01/22 01:46:52;;;;;;;17.67;4.63;;;;;;;;;;5020076;28;20810;-89
2022/01/22 01:49:18;;;;;;;26.00;5.20;;;;;;;;;;5017607;28;20465;-89
2022/01/22 01:51:46;;;;;;;16.37;4.90;;;;;;;;;;5020585;28;20861;-88
2022/01/22 01:54:27;;;;;;;21.97;6.47;;;;;;;;;;5019839;28;20466;-89
2022/01/22 01:59:39;;;;;;;19.17;4.97;;;;;;;;;;5021511;28;20444;-89
2022/01/22 02:02:06;;;;;;;20.90;5.27;;;;;;;;;;5020311;28;20461;-88
2022/01/22 02:04:32;;;;;;;18.23;5.77;;;;;;;;;;5018572;28;20515;-89
2022/01/22 02:06:59;;;;;;;15.67;4.10;;;;;;;;;;5017463;28;21298;-89
2022/01/22 02:09:25;;;;;;;26.20;5.37;;;;;;;;;;5018598;28;20472;-89
2022/01/22 02:11:59;;;;;;;29.07;8.13;;;;;;;;;;5016400;28;20481;-89
2022/01/22 02:25:26;;;;;;;23.53;5.00;;;;;;;;;;5017885;28;20464;-89
2022/01/22 02:27:52;;;;;;;18.40;6.73;;;;;;;;;;5019944;28;20567;-89
2022/01/22 02:30:22;;;;;;;20.37;4.90;;;;;;;;;;5019874;28;20523;-88
2022/01/22 02:33:06;;;;;;;12.67;4.57;;;;;;;;;;5018004;28;20930;-88
2022/01/22 02:35:34;;;;;;;23.47;6.47;;;;;;;;;;5018248;28;20539;-89
2022/01/22 02:38:09;;;;;;;23.20;4.87;;;;;;;;;;5012599;28;20485;-89
2022/01/22 02:40:42;;;;;;;11.10;4.17;;;;;;;;;;5017359;28;21360;-89
2022/01/22 02:43:09;;;;;;;23.43;4.67;;;;;;;;;;5015486;28;20933;-89
2022/01/22 02:45:36;;;;;;;17.43;4.13;;;;;;;;;;5016511;28;20508;-89
2022/01/22 02:48:02;;;;;;;17.33;3.83;;;;;;;;;;5019184;28;20540;-88
2022/01/22 02:50:28;;;;;;;12.83;3.57;;;;;;;;;;5019189;28;21013;-89
2022/01/22 02:52:54;;;;;;;16.70;3.17;;;;;;;;;;5017805;28;20473;-90
2022/01/22 02:55:22;;;;;;;12.23;4.00;;;;;;;;;;5020466;28;20456;-89
2022/01/22 02:57:48;;;;;;;11.70;2.40;;;;;;;;;;5017356;28;20481;-88
2022/01/22 03:00:17;;;;;;;11.50;3.27;;;;;;;;;;5016976;28;20481;-89
2022/01/22 03:02:44;;;;;;;6.47;3.10;;;;;;;;;;5017183;28;20852;-88
2022/01/22 03:05:10;;;;;;;10.73;3.60;;;;;;;;;;5018401;28;20450;-90
2022/01/22 03:07:39;;;;;;;6.30;3.30;;;;;;;;;;5017584;28;21046;-89
2022/01/22 03:10:07;;;;;;;9.90;2.83;;;;;;;;;;5018465;28;20484;-89
2022/01/22 03:12:52;;;;;;;9.93;2.40;;;;;;;;;;5018878;28;20490;-90
2022/01/22 03:15:35;;;;;;;5.30;1.70;;;;;;;;;;5016621;28;20468;-89
2022/01/22 03:18:06;;;;;;;5.87;2.60;;;;;;;;;;5007758;28;20480;-88
2022/01/22 03:20:43;;;;;;;4.30;2.07;;;;;;;;;;5018190;28;20568;-89
2022/01/22 03:27:12;;;;;;;4.40;2.07;;;;;;;;;;5017508;28;20480;-89
2022/01/22 03:28:53;;;;;;;12.03;3.87;;;;;;;;;;5016236;28;20483;-88
2022/01/22 03:31:19;;;;;;;7.83;2.80;;;;;;;;;;5018445;28;20496;-89
2022/01/22 03:33:45;;;;;;;6.33;3.00;;;;;;;;;;5018331;28;21015;-89
2022/01/22 03:36:11;;;;;;;7.57;3.27;;;;;;;;;;5020356;28;20457;-88
2022/01/22 03:38:38;;;;;;;7.80;3.50;;;;;;;;;;5019317;28;20481;-89
2022/01/22 03:41:04;;;;;;;9.00;3.63;;;;;;;;;;5017892;28;20473;-90
2022/01/22 03:43:30;;;;;;;6.80;3.70;;;;;;;;;;5019303;28;20859;-88
2022/01/22 03:45:58;;;;;;;8.73;3.37;;;;;;;;;;5019272;28;21363;-89
2022/01/22 03:48:24;;;;;;;11.00;3.67;;;;;;;;;;5015464;28;20542;-90
2022/01/22 03:50:50;;;;;;;9.23;3.23;;;;;;;;;;5017287;28;20505;-89
2022/01/22 03:53:17;;;;;;;9.93;3.40;;;;;;;;;;5018858;28;20524;-89
2022/01/22 03:55:51;;;;;;;7.67;3.10;;;;;;;;;;5020252;28;20454;-89
2022/01/22 03:58:17;;;;;;;13.07;3.43;;;;;;;;;;5018420;28;20522;-89
2022/01/22 04:00:43;;;;;;;4.33;2.63;;;;;;;;;;5017128;28;20489;-89
2022/01/22 04:03:28;;;;;;;4.27;1.90;;;;;;;;;;5018445;28;20484;-89
2022/01/22 04:08:36;;;;;;;3.57;2.57;;;;;;;;;;5010033;28;21193;-89
2022/01/22 04:11:03;;;;;;;6.23;2.17;;;;;;;;;;5019850;28;20496;-89
2022/01/22 04:13:33;;;;;;;4.40;1.60;;;;;;;;;;5020428;28;21029;-90
2022/01/22 04:15:59;;;;;;;5.03;2.20;;;;;;;;;;5018819;28;20968;-89
2022/01/22 04:26:42;;;;;;;6.63;3.30;;;;;;;;;;5014482;28;20445;-89
2022/01/22 04:29:09;;;;;;;8.03;2.57;;;;;;;;;;5015087;28;20449;-89
2022/01/22 04:31:35;;;;;;;6.03;2.20;;;;;;;;;;5018840;28;20492;-89
2022/01/22 04:34:02;;;;;;;6.07;2.70;;;;;;;;;;5019086;28;20510;-90
2022/01/22 04:36:29;;;;;;;6.27;2.83;;;;;;;;;;5020987;28;20457;-90
2022/01/22 04:38:55;;;;;;;5.90;2.77;;;;;;;;;;5019222;28;20478;-90
2022/01/22 04:41:21;;;;;;;3.60;2.40;;;;;;;;;;5024256;28;20474;-89
2022/01/22 04:43:49;;;;;;;3.90;2.20;;;;;;;;;;5020043;28;20486;-89
2022/01/22 04:46:21;;;;;;;5.57;2.97;;;;;;;;;;5021650;28;20971;-89
2022/01/22 04:49:04;;;;;;;3.87;2.63;;;;;;;;;;5023820;28;20478;-90
2022/01/22 04:56:59;;;;;;;7.17;2.67;;;;;;;;;;5021569;28;20463;-89
2022/01/22 04:59:26;;;;;;;3.67;2.80;;;;;;;;;;5022669;28;20528;-90
2022/01/22 05:01:52;;;;;;;7.87;3.03;;;;;;;;;;5019234;28;20480;-89
2022/01/22 05:04:18;;;;;;;10.73;4.47;;;;;;;;;;5020359;28;20449;-90
2022/01/22 05:06:46;;;;;;;12.70;4.73;;;;;;;;;;5021650;28;20990;-89
2022/01/22 05:09:12;;;;;;;17.93;4.60;;;;;;;;;;5017525;28;20460;-89
2022/01/22 05:11:38;;;;;;;12.07;4.67;;;;;;;;;;5021849;28;20489;-89
2022/01/22 05:14:04;;;;;;;8.80;4.33;;;;;;;;;;5022855;28;20486;-90
2022/01/22 05:16:31;;;;;;;14.37;4.37;;;;;;;;;;5018168;28;20468;-89
2022/01/22 05:19:01;;;;;;;15.50;4.50;;;;;;;;;;5020695;28;20468;-89
2022/01/22 05:21:29;;;;;;;10.10;3.97;;;;;;;;;;5021990;28;20492;-89
2022/01/22 05:24:01;;;;;;;11.83;4.20;;;;;;;;;;5020267;28;20511;-88
2022/01/22 05:29:45;;;;;;;9.27;3.90;;;;;;;;;;5075721;27;20556;-86
2022/01/22 05:37:36;;;;;;;9.23;3.30;;;;;;;;;;5010724;28;20529;-85
2022/01/22 05:40:02;;;;;;;13.00;4.13;;;;;;;;;;5011182;28;20460;-86
2022/01/22 05:42:28;;;;;;;5.60;2.67;;;;;;;;;;5012535;28;20473;-85
2022/01/22 05:44:56;;;;;;;7.53;3.40;;;;;;;;;;5011700;28;20482;-86
2022/01/22 05:47:23;;;;;;;9.80;3.93;;;;;;;;;;5017286;28;20474;-87
2022/01/22 05:49:50;;;;;;;10.23;4.10;;;;;;;;;;5015816;28;20485;-86
2022/01/22 05:52:24;;;;;;;9.13;4.20;;;;;;;;;;5015813;28;20482;-86
2022/01/22 05:55:11;;;;;;;19.47;4.07;;;;;;;;;;5018119;28;20584;-86
2022/01/22 06:00:23;;;;;;;12.70;3.77;;;;;;;;;;5016378;28;20445;-86
2022/01/22 06:02:49;;;;;;;13.50;4.80;;;;;;;;;;5011110;28;20473;-86
2022/01/22 06:05:16;;;;;;;13.83;4.17;;;;;;;;;;5014376;28;20485;-86
2022/01/22 06:07:42;;;;;;;9.53;3.50;;;;;;;;;;5012089;28;20484;-85
2022/01/22 06:10:17;;;;;;;10.50;3.80;;;;;;;;;;5006612;28;20469;-86
2022/01/22 06:12:46;;;;;;;19.30;4.33;;;;;;;;;;5011049;28;20849;-86
2022/01/22 06:15:13;;;;;;;12.93;3.30;;;;;;;;;;5009627;28;20524;-86
2022/01/22 06:17:41;;;;;;;7.90;3.30;;;;;;;;;;5013889;28;20466;-86
2022/01/22 06:20:08;;;;;;;9.27;2.40;;;;;;;;;;5014324;28;20461;-86
2022/01/22 06:22:34;;;;;;;13.20;3.77;;;;;;;;;;5008689;28;20492;-86
2022/01/22 06:25:01;;;;;;;10.53;4.07;;;;;;;;;;5011102;28;20543;-86
2022/01/22 06:27:27;;;;;;;11.57;3.53;;;;;;;;;;5011385;28;20480;-86
2022/01/22 06:29:53;;;;;;;7.73;3.03;;;;;;;;;;5014013;28;20824;-86
2022/01/22 06:32:20;;;;;;;11.27;3.47;;;;;;;;;;5012317;28;20481;-85
2022/01/22 06:34:47;;;;;;;13.43;4.03;;;;;;;;;;5008583;28;20512;-85
2022/01/22 06:37:14;;;;;;;10.73;4.90;;;;;;;;;;5011785;28;21035;-86
2022/01/22 06:41:44;;;;;;;16.00;3.43;;;;;;;;;;5001457;28;20467;-86
2022/01/22 06:42:29;;;;;;;8.80;4.40;;;;;;;;;;4995349;28;20552;-86
2022/01/22 06:44:55;;;;;;;10.33;3.67;;;;;;;;;;4999731;28;20941;-86
2022/01/22 06:47:22;;;;;;;9.90;4.00;;;;;;;;;;5002469;28;20473;-85
2022/01/22 06:49:49;;;;;;;16.07;3.23;;;;;;;;;;4998545;28;20857;-84
2022/01/22 06:52:16;;;;;;;11.57;3.30;;;;;;;;;;5001399;28;20470;-85
2022/01/22 06:54:43;;;;;;;14.67;3.23;;;;;;;;;;4999095;28;21013;-84
2022/01/22 06:57:09;;;;;;;12.77;2.83;;;;;;;;;;4998059;28;20554;-83
2022/01/22 06:59:36;;;;;;;19.63;4.60;;;;;;;;;;4997429;28;20450;-85
2022/01/22 07:02:03;;;;;;;17.63;3.80;;;;;;;;;;4997465;28;20881;-84
2022/01/22 07:04:29;;;;;;;9.33;3.10;;;;;;;;;;5000632;28;20855;-84
2022/01/22 07:06:57;;;;;;;11.03;3.37;;;;;;;;;;4997481;28;20473;-84
2022/01/22 07:09:24;;;;;;;10.60;3.33;;;;;;;;;;4999412;28;20486;-84
2022/01/22 07:11:50;;;;;;;13.70;4.43;;;;;;;;;;5001639;28;20451;-85
2022/01/22 07:14:17;;;;;;;21.47;4.37;;;;;;;;;;4999468;28;21021;-84
2022/01/22 07:16:43;;;;;;;15.53;4.10;;;;;;;;;;5004707;28;20457;-84
2022/01/22 07:19:09;;;;;;;16.70;4.30;;;;;;;;;;4997714;28;20441;-84
2022/01/22 07:21:37;;;;;;;15.07;4.83;;;;;;;;;;5008718;22;20520;-84
2022/01/22 07:26:48;;;;;;;9.37;3.37;;;;;;;;;;5013980;28;21034;-84
2022/01/22 07:29:14;;;;;;;7.10;3.30;;;;;;;;;;5009854;28;20487;-84
2022/01/22 07:31:41;;;;;;;11.80;3.60;;;;;;;;;;5009927;28;20458;-83
2022/01/22 07:34:07;;;;;;;15.37;4.20;;;;;;;;;;5011723;28;20466;-83
2022/01/22 07:36:33;;;;;;;9.30;4.63;;;;;;;;;;5008379;28;20468;-83
2022/01/22 07:39:00;;;;;;;10.17;4.80;;;;;;;;;;5009333;28;20454;-83
2022/01/22 07:41:27;;;;;;;14.47;4.10;;;;;;;;;;5012559;28;20482;-84
2022/01/22 07:43:54;;;;;;;5.80;2.70;;;;;;;;;;5011721;28;20470;-83
2022/01/22 07:46:20;;;;;;;10.43;3.97;;;;;;;;;;5012055;28;20453;-82
2022/01/22 07:48:47;;;;;;;13.10;4.43;;;;;;;;;;5013189;28;20512;-83
2022/01/22 07:51:14;;;;;;;11.20;4.27;;;;;;;;;;5012316;28;20462;-82
2022/01/22 07:53:41;;;;;;;11.63;4.90;;;;;;;;;;5008919;28;20492;-82
2022/01/22 07:56:07;;;;;;;6.80;4.47;;;;;;;;;;5009014;28;20693;-82
2022/01/22 07:58:35;;;;;;;10.90;4.67;;;;;;;;;;5014263;28;20476;-82
2022/01/22 08:01:01;;;;;;;7.00;3.43;;;;;;;;;;5013449;28;20458;-82
2022/01/22 08:03:28;;;;;;;8.10;4.13;;;;;;;;;;5004202;28;20486;-83
2022/01/22 08:05:55;;;;;;;9.63;3.87;;;;;;;;;;5006366;28;20566;-80
2022/01/22 08:08:21;;;;;;;13.10;3.53;;;;;;;;;;5010299;28;20489;-80
2022/01/22 08:10:48;;;;;;;10.50;3.60;;;;;;;;;;5008047;28;20465;-83
2022/01/22 08:13:14;;;;;;;9.77;3.17;;;;;;;;;;5015122;28;20569;-83
2022/01/22 08:15:42;;;;;;;6.10;2.90;;;;;;;;;;5006563;28;21315;-82
2022/01/22 08:18:08;;;;;;;6.50;3.30;;;;;;;;;;5016291;28;20527;-82
2022/01/22 08:20:34;;;;;;;5.80;4.00;;;;;;;;;;5012430;28;20491;-84
2022/01/22 08:23:01;;;;;;;8.03;3.37;;;;;;;;;;5009901;28;20474;-81
2022/01/22 08:25:29;;;;;;;5.17;3.40;;;;;;;;;;5007925;28;20462;-81
2022/01/22 08:30:37;;;;;;;3.33;2.30;;;;;;;;;;4977582;28;20483;-81
2022/01/22 08:33:31;;;;;;;5.90;3.10;;;;;;;;;;5016689;28;20472;-82
2022/01/22 08:35:55;;;;;;;3.90;2.03;;;;;;;;;;5012699;28;20480;-82
2022/01/22 08:38:22;;;;;;;9.37;2.60;;;;;;;;;;5014085;28;20525;-82
2022/01/22 08:40:48;;;;;;;3.50;2.50;;;;;;;;;;5017132;28;20253;-83
2022/01/22 08:43:14;;;;;;;3.00;2.70;;;;;;;;;;5015109;28;20482;-83
2022/01/22 08:45:41;;;;;;;3.57;2.80;;;;;;;;;;5017140;28;20472;-84
2022/01/22 08:48:08;;;;;;;7.43;5.33;;;;;;;;;;5016158;28;20468;-84
2022/01/22 08:50:35;;;;;;;6.30;4.30;;;;;;;;;;5018248;28;20460;-83
2022/01/22 08:53:01;;;;;;;8.43;6.10;;;;;;;;;;5016373;28;20546;-83
2022/01/22 08:55:28;;;;;;;7.47;5.33;;;;;;;;;;5011953;28;20495;-83
2022/01/22 08:57:54;;;;;;;11.97;6.40;;;;;;;;;;5019639;28;20445;-82
2022/01/22 09:00:21;;;;;;;12.07;5.70;;;;;;;;;;5018747;28;20458;-83
2022/01/22 09:02:48;;;;;;;7.63;4.87;;;;;;;;;;5015708;28;20488;-85
2022/01/22 09:05:17;;;;;;;6.70;4.83;;;;;;;;;;5013930;28;20465;-83
2022/01/22 09:07:43;;;;;;;6.67;3.47;;;;;;;;;;5018409;28;20474;-82
2022/01/22 09:10:10;;;;;;;4.47;2.43;;;;;;;;;;5017625;28;20504;-82
2022/01/22 09:12:36;;;;;;;4.80;2.37;;;;;;;;;;5018439;28;20465;-83
2022/01/22 09:15:03;;;;;;;5.10;2.93;;;;;;;;;;5017432;28;20966;-82
2022/01/22 09:17:29;;;;;;;2.83;2.23;;;;;;;;;;5014614;28;20901;-83
2022/01/22 09:19:58;;;;;;;3.63;2.43;;;;;;;;;;5015275;28;20548;-83
2022/01/22 09:22:25;;;;;;;3.57;2.37;;;;;;;;;;5021383;28;20565;-83
2022/01/22 09:24:52;;;;;;;2.57;2.03;;;;;;;;;;5019110;28;20461;-85
2022/01/22 09:27:19;;;;;;;2.70;1.33;;;;;;;;;;5015254;28;20482;-83
2022/01/22 09:29:46;;;;;;;3.10;2.43;;;;;;;;;;5019141;28;20546;-83
2022/01/22 09:32:12;;;;;;;1.43;1.33;;;;;;;;;;5019134;28;20476;-82
2022/01/22 09:34:40;;;;;;;2.10;1.30;;;;;;;;;;5017791;28;20476;-83
2022/01/22 09:37:06;;;;;;;2.40;1.27;;;;;;;;;;5018786;28;20480;-83
2022/01/22 09:39:34;;;;;;;1.53;1.00;;;;;;;;;;5018784;28;20468;-83
2022/01/22 09:42:00;;;;;;;1.20;1.00;;;;;;;;;;5018468;28;20480;-83
2022/01/22 09:44:26;;;;;;;1.43;1.33;;;;;;;;;;5017831;28;20472;-83
2022/01/22 09:46:53;;;;;;;0.87;0.70;;;;;;;;;;5015215;28;20488;-84
2022/01/22 09:49:20;;;;;;;2.50;1.27;;;;;;;;;;5015115;28;20486;-84
2022/01/22 09:51:46;;;;;;;1.50;0.80;;;;;;;;;;5014587;28;20981;-84
2022/01/22 09:54:12;;;;;;;2.60;0.90;;;;;;;;;;5019583;28;20855;-85
2022/01/22 09:56:44;;;;;;;2.67;1.27;;;;;;;;;;5016156;28;20539;-84
2022/01/22 09:59:11;;;;;;;1.70;1.00;;;;;;;;;;5017072;28;20929;-84
2022/01/22 10:01:37;;;;;;;1.33;1.00;;;;;;;;;;5016338;28;20472;-83
2022/01/22 10:04:04;;;;;;;1.03;0.93;;;;;;;;;;5016759;28;20468;-85
2022/01/22 10:06:31;;;;;;;1.00;0.83;;;;;;;;;;5015493;28;20481;-83
2022/01/22 10:09:06;;;;;;;0.77;0.67;;;;;;;;;;5018600;28;20491;-82
2022/01/22 10:11:33;;;;;;;1.70;1.20;;;;;;;;;;5019030;28;20499;-83
2022/01/22 10:14:01;;;;;;;2.33;1.10;;;;;;;;;;5017854;28;20486;-83
2022/01/22 10:16:29;;;;;;;0.80;0.70;;;;;;;;;;5023768;28;20850;-82
2022/01/22 10:19:08;;;;;;;1.17;0.97;;;;;;;;;;5020049;28;20449;-82
2022/01/22 10:21:35;;;;;;;9.73;1.40;;;;;;;;;;5016254;28;21015;-83
2022/01/22 10:24:16;;;;;;;4.93;1.30;;;;;;;;;;5018373;28;20485;-82
2022/01/22 10:26:42;;;;;;;2.73;1.30;;;;;;;;;;5017600;28;20503;-83
2022/01/22 10:29:11;;;;;;;10.20;1.40;;;;;;;;;;5019889;28;20492;-82
2022/01/22 10:31:41;;;;;;;1.67;0.87;;;;;;;;;;5019559;28;20476;-84
2022/01/22 10:34:09;;;;;;;6.30;1.17;;;;;;;;;;5021664;28;20895;-83
2022/01/22 10:36:35;;;;;;;9.40;1.70;;;;;;;;;;5022046;28;20477;-83
2022/01/22 10:39:01;;;;;;;3.83;1.47;;;;;;;;;;5015143;28;20461;-80
2022/01/22 10:41:36;;;;;;;3.07;1.03;;;;;;;;;;5015956;28;20478;-80
2022/01/22 10:44:03;;;;;;;4.93;1.40;;;;;;;;;;5018970;28;20569;-82
2022/01/22 10:46:43;;;;;;;8.03;1.30;;;;;;;;;;5017678;28;20465;-83
2022/01/22 10:49:10;;;;;;;4.93;1.30;;;;;;;;;;5021532;28;20848;-82
2022/01/22 10:51:44;;;;;;;4.37;1.40;;;;;;;;;;5018456;28;20476;-82
2022/01/22 10:54:11;;;;;;;3.80;1.20;;;;;;;;;;5017838;28;20539;-82
2022/01/22 10:56:39;;;;;;;4.00;1.33;;;;;;;;;;5017832;28;21133;-84
2022/01/22 10:59:06;;;;;;;4.20;1.10;;;;;;;;;;5020848;28;21202;-82
2022/01/22 11:01:46;;;;;;;3.73;1.60;;;;;;;;;;5019336;28;20484;-81
2022/01/22 11:04:13;;;;;;;2.30;1.33;;;;;;;;;;5025057;28;20479;-83
2022/01/22 11:06:40;;;;;;;5.90;1.23;;;;;;;;;;5019892;28;21032;-84
2022/01/22 11:09:08;;;;;;;1.00;1.00;;;;;;;;;;5017194;28;20489;-80
2022/01/22 11:11:37;;;;;;;5.30;1.00;;;;;;;;;;5019485;28;20570;-82
2022/01/22 11:14:04;;;;;;;6.80;1.93;;;;;;;;;;5021196;28;20466;-83
2022/01/22 11:16:31;;;;;;;3.07;1.07;;;;;;;;;;5016131;28;20524;-85
2022/01/22 11:18:59;;;;;;;2.40;1.20;;;;;;;;;;5014706;28;20450;-82
2022/01/22 11:21:25;;;;;;;1.90;0.60;;;;;;;;;;5021017;28;20476;-83
2022/01/22 11:23:52;;;;;;;4.37;1.07;;;;;;;;;;5017872;28;20470;-82
2022/01/22 11:26:19;;;;;;;6.83;1.20;;;;;;;;;;5021186;28;20511;-81
2022/01/22 11:28:46;;;;;;;2.50;0.80;;;;;;;;;;5018315;28;20457;-82
2022/01/22 11:31:15;;;;;;;5.30;0.90;;;;;;;;;;5022179;28;20473;-83
2022/01/22 11:33:42;;;;;;;1.37;0.60;;;;;;;;;;5021128;28;20480;-83
2022/01/22 11:36:14;;;;;;;3.33;0.60;;;;;;;;;;5020878;28;20476;-82
2022/01/22 11:38:41;;;;;;;1.43;0.70;;;;;;;;;;5017116;28;20878;-81
2022/01/22 11:41:09;;;;;;;1.57;0.80;;;;;;;;;;5019073;28;20472;-81
2022/01/22 11:43:51;;;;;;;2.00;0.70;;;;;;;;;;5017720;28;20461;-80
2022/01/22 11:46:24;;;;;;;2.03;0.80;;;;;;;;;;5021868;28;20478;-80
2022/01/22 11:49:08;;;;;;;4.33;1.57;;;;;;;;;;5017040;28;20961;-82
2022/01/22 11:51:36;;;;;;;4.40;1.07;;;;;;;;;;5018574;28;20476;-81
2022/01/22 11:54:02;;;;;;;1.00;0.80;;;;;;;;;;5015014;28;21370;-81
2022/01/22 11:56:29;;;;;;;0.90;0.77;;;;;;;;;;5016603;28;20485;-82
2022/01/22 11:59:14;;;;;;;3.33;0.90;;;;;;;;;;5016983;28;21032;-81
2022/01/22 12:01:56;;;;;;;0.43;0.43;;;;;;;;;;5018730;28;20485;-83
2022/01/22 12:04:23;;;;;;;1.27;0.70;;;;;;;;;;5017054;28;20485;-81
2022/01/22 12:07:13;;;;;;;1.67;0.63;;;;;;;;;;5018867;28;20476;-82
2022/01/22 12:09:43;;;;;;;4.33;1.07;;;;;;;;;;5021834;28;20924;-84
2022/01/22 12:15:07;;;;;;;3.07;1.00;;;;;;;;;;5020228;28;20445;-82
2022/01/22 12:17:56;;;;;;;4.50;1.40;;;;;;;;;;5013841;28;20481;-82
2022/01/22 12:21:30;;;;;;;1.80;1.10;;;;;;;;;;5018902;28;20453;-82
2022/01/22 12:23:43;;;;;;;3.23;1.50;;;;;;;;;;5021785;28;20472;-82
2022/01/22 12:26:10;;;;;;;4.10;0.97;;;;;;;;;;5020108;28;20481;-81
2022/01/22 12:28:38;;;;;;;2.30;1.10;;;;;;;;;;5020003;28;20454;-83
2022/01/22 12:31:05;;;;;;;7.03;1.30;;;;;;;;;;5018316;28;20484;-83
2022/01/22 12:33:45;;;;;;;6.20;1.00;;;;;;;;;;5015614;28;20481;-81
2022/01/22 12:36:13;;;;;;;4.37;0.83;;;;;;;;;;5009906;28;20484;-83
2022/01/22 12:38:47;;;;;;;3.80;1.07;;;;;;;;;;5020855;28;20464;-82
2022/01/22 12:41:28;;;;;;;2.47;0.87;;;;;;;;;;5014432;28;20466;-83
2022/01/22 12:44:02;;;;;;;4.50;1.00;;;;;;;;;;5014682;28;20563;-84
2022/01/22 12:46:29;;;;;;;1.70;1.00;;;;;;;;;;5015019;28;20477;-82
2022/01/22 12:48:57;;;;;;;3.03;0.83;;;;;;;;;;5008823;28;20461;-82
2022/01/22 12:51:25;;;;;;;3.60;0.97;;;;;;;;;;5008394;28;20493;-83
2022/01/22 12:53:51;;;;;;;4.10;1.23;;;;;;;;;;5006126;28;21197;-85
2022/01/22 12:56:49;;;;;;;2.40;1.43;;;;;;;;;;5014539;28;21028;-83
2022/01/22 12:59:16;;;;;;;1.37;1.10;;;;;;;;;;5014615;28;20460;-82
2022/01/22 13:01:44;;;;;;;3.50;2.40;;;;;;;;;;5013023;28;20567;-84
2022/01/22 13:04:10;;;;;;;3.80;1.50;;;;;;;;;;5016064;28;20501;-83
2022/01/22 13:06:38;;;;;;;8.33;1.83;;;;;;;;;;5016944;28;20479;-82
2022/01/22 13:09:04;;;;;;;1.90;1.40;;;;;;;;;;5011375;28;20452;-83
2022/01/22 13:11:33;;;;;;;4.00;1.13;;;;;;;;;;5009858;28;20486;-82
2022/01/22 13:14:00;;;;;;;3.37;0.93;;;;;;;;;;5014702;28;20504;-82
2022/01/22 13:16:26;;;;;;;4.70;1.20;;;;;;;;;;5021840;28;20464;-83
2022/01/22 13:18:56;;;;;;;1.73;0.90;;;;;;;;;;5013167;28;21365;-84
2022/01/22 13:21:23;;;;;;;2.27;0.93;;;;;;;;;;5016321;28;20489;-84
2022/01/22 13:24:00;;;;;;;5.70;1.80;;;;;;;;;;5024721;23;20497;-87
2022/01/22 13:26:43;;;;;;;1.90;1.17;;;;;;;;;;4995254;28;20467;-87
2022/01/22 13:29:16;;;;;;;5.30;1.27;;;;;;;;;;4983785;28;21213;-87
2022/01/22 13:31:54;;;;;;;7.40;1.33;;;;;;;;;;4985405;28;20521;-85
2022/01/22 13:34:31;;;;;;;3.33;1.30;;;;;;;;;;4984509;28;20461;-86
2022/01/22 13:37:33;;;;;;;2.87;1.07;;;;;;;;;;4984121;28;20478;-87
2022/01/22 13:47:39;;;;;;;10.00;1.30;;;;;;;;;;5000989;28;20456;-85
2022/01/22 13:48:09;;;;;;;2.40;0.77;;;;;;;;;;4984971;28;20443;-83
2022/01/22 13:50:35;;;;;;;1.33;0.60;;;;;;;;;;4984823;28;20489;-82
2022/01/22 13:53:02;;;;;;;2.50;0.90;;;;;;;;;;5007863;28;20249;-83
2022/01/22 13:55:28;;;;;;;1.00;0.97;;;;;;;;;;5005246;28;20473;-84
2022/01/22 13:57:56;;;;;;;5.87;1.27;;;;;;;;;;5010040;28;20469;-82
2022/01/22 14:00:24;;;;;;;1.67;1.17;;;;;;;;;;5008291;28;20556;-83
2022/01/22 14:03:04;;;;;;;4.40;1.80;;;;;;;;;;5009622;28;20480;-82
2022/01/22 14:05:31;;;;;;;2.70;1.87;;;;;;;;;;5010292;28;21017;-82
2022/01/22 14:08:02;;;;;;;2.00;1.03;;;;;;;;;;5008350;28;20458;-84
2022/01/22 14:10:29;;;;;;;6.17;1.20;;;;;;;;;;5008768;28;20540;-84
2022/01/22 14:13:00;;;;;;;4.17;1.50;;;;;;;;;;5009792;28;21024;-82
2022/01/22 14:15:30;;;;;;;3.23;0.93;;;;;;;;;;5011053;28;20545;-84
2022/01/22 14:18:07;;;;;;;2.40;1.10;;;;;;;;;;5008741;28;20451;-83
2022/01/22 14:20:34;;;;;;;3.40;1.70;;;;;;;;;;5009209;28;20562;-83
2022/01/22 14:23:03;;;;;;;5.50;1.53;;;;;;;;;;5010741;28;20485;-83
2022/01/22 14:25:30;;;;;;;6.93;1.17;;;;;;;;;;5008288;28;20862;-82
2022/01/22 14:27:59;;;;;;;3.50;1.37;;;;;;;;;;5010807;28;20804;-83
2022/01/22 14:30:36;;;;;;;6.53;1.10;;;;;;;;;;5007954;28;20482;-83
2022/01/22 14:33:03;;;;;;;2.17;0.73;;;;;;;;;;5007168;28;20489;-84
2022/01/22 14:35:29;;;;;;;2.50;1.20;;;;;;;;;;5007352;28;20465;-84
2022/01/22 14:37:59;;;;;;;2.17;0.97;;;;;;;;;;5008984;28;20470;-83
2022/01/22 14:45:58;;;;;;;1.40;1.03;;;;;;;;;;5009346;28;20480;-83
2022/01/22 14:48:25;;;;;;;1.67;1.57;;;;;;;;;;5009846;28;20480;-84
2022/01/22 14:50:51;;;;;;;1.60;0.80;;;;;;;;;;5005856;28;20486;-84
2022/01/22 14:53:17;;;;;;;3.80;0.83;;;;;;;;;;5008687;28;20469;-84
2022/01/22 14:55:48;;;;;;;2.70;1.07;;;;;;;;;;5008092;28;20502;-83
2022/01/22 14:58:16;;;;;;;4.87;1.87;;;;;;;;;;5009687;28;20465;-84
2022/01/22 15:00:42;;;;;;;3.50;1.17;;;;;;;;;;5009204;28;21092;-81
2022/01/22 15:03:08;;;;;;;2.70;1.13;;;;;;;;;;5009788;28;20485;-84
2022/01/22 15:05:34;;;;;;;5.03;1.43;;;;;;;;;;5008511;28;20520;-84
2022/01/22 15:08:01;;;;;;;8.53;1.27;;;;;;;;;;5010563;28;20466;-83
2022/01/22 15:10:27;;;;;;;1.87;1.10;;;;;;;;;;5006924;28;21274;-83
2022/01/22 15:12:53;;;;;;;3.77;1.27;;;;;;;;;;5005341;28;20475;-85
2022/01/22 15:15:23;;;;;;;2.43;1.60;;;;;;;;;;5008525;28;20458;-84
2022/01/22 15:18:05;;;;;;;5.23;1.60;;;;;;;;;;5005948;28;20449;-86
2022/01/22 15:20:33;;;;;;;6.37;1.20;;;;;;;;;;5007128;28;20904;-86
2022/01/22 15:23:00;;;;;;;1.50;1.20;;;;;;;;;;5006840;28;20497;-86
2022/01/22 15:25:26;;;;;;;2.63;1.03;;;;;;;;;;5006608;28;20504;-86
2022/01/22 15:27:55;;;;;;;4.20;1.63;;;;;;;;;;5006554;28;20454;-86
2022/01/22 15:30:29;;;;;;;9.03;1.50;;;;;;;;;;5005710;28;20929;-86
2022/01/22 15:33:00;;;;;;;5.00;1.87;;;;;;;;;;5006374;28;20504;-86
2022/01/22 15:35:26;;;;;;;1.70;1.03;;;;;;;;;;5002636;28;20565;-86
2022/01/22 15:37:57;;;;;;;3.77;1.40;;;;;;;;;;4985001;28;20463;-86
2022/01/22 15:40:24;;;;;;;5.00;2.10;;;;;;;;;;4985001;28;20691;-85
2022/01/22 15:42:50;;;;;;;3.17;1.50;;;;;;;;;;5002715;28;20513;-86
2022/01/22 15:45:17;;;;;;;3.10;1.40;;;;;;;;;;5001813;28;20552;-85
2022/01/22 15:47:44;;;;;;;1.73;1.20;;;;;;;;;;5004651;28;21231;-85
2022/01/22 15:50:11;;;;;;;4.10;1.37;;;;;;;;;;5004644;28;20873;-85
2022/01/22 15:52:37;;;;;;;1.40;1.23;;;;;;;;;;5004741;28;20531;-86
2022/01/22 15:55:08;;;;;;;2.27;1.40;;;;;;;;;;5003462;28;20447;-85
2022/01/22 15:57:34;;;;;;;3.13;1.27;;;;;;;;;;5004683;28;20586;-86
2022/01/22 16:00:00;;;;;;;2.27;1.40;;;;;;;;;;5004016;28;20826;-86
2022/01/22 16:02:27;;;;;;;4.13;2.07;;;;;;;;;;5004781;28;20903;-86
2022/01/22 16:04:55;;;;;;;5.00;1.73;;;;;;;;;;5006156;28;20445;-86
2022/01/22 16:07:23;;;;;;;5.20;1.50;;;;;;;;;;5005478;28;20484;-85
2022/01/22 16:09:50;;;;;;;8.90;2.63;;;;;;;;;;5003743;28;20461;-86